Time;durP1;ratioP1;P1;durP2;ratioP2;P2;SDS_P1;SDS_P2;PMS_P1;PMS_P2;Temp;Humidity;BMP_temperature;BMP_pressure;BME280_temperature;BME280_humidity;BME280_pressure;Samples;Min_cycle;Max_cycle;Signal;HPM_P1;HPM_P2
2021/07/19 00:03:21;;;;;;;6.90;4.47;;;;;;;18.72;59.89;100288.66;10404836;28;20137;-59
2021/07/19 00:08:23;;;;;;;7.80;4.40;;;;;;;18.62;59.79;100298.38;10403968;28;20132;-59
2021/07/19 00:13:25;;;;;;;6.57;4.60;;;;;;;18.54;59.72;100288.44;10403458;28;20132;-59
2021/07/19 00:18:27;;;;;;;8.35;4.90;;;;;;;18.44;60.10;100294.69;10403692;28;20047;-60
2021/07/19 00:23:28;;;;;;;8.57;4.45;;;;;;;18.32;60.72;100299.19;10402305;28;20084;-59
2021/07/19 00:28:30;;;;;;;7.53;4.90;;;;;;;18.32;60.65;100301.03;10403824;28;20136;-59
2021/07/19 00:33:32;;;;;;;9.02;4.88;;;;;;;18.30;60.43;100295.84;10404083;28;20147;-59
2021/07/19 00:38:34;;;;;;;8.70;4.70;;;;;;;18.17;61.00;100300.50;10403294;28;20140;-59
2021/07/19 00:43:35;;;;;;;7.22;5.00;;;;;;;18.16;60.83;100306.75;10419686;28;20055;-59
2021/07/19 00:48:37;;;;;;;10.25;5.15;;;;;;;18.10;60.79;100304.63;10403559;28;20132;-59
2021/07/19 00:53:39;;;;;;;9.35;4.90;;;;;;;18.04;60.72;100299.00;10403752;28;20375;-59
2021/07/19 00:58:41;;;;;;;9.10;4.68;;;;;;;17.95;61.16;100299.81;10403593;28;20057;-59
2021/07/19 01:03:43;;;;;;;10.75;5.40;;;;;;;17.78;61.59;100295.91;10418754;28;20366;-59
2021/07/19 01:08:47;;;;;;;6.18;4.40;;;;;;;17.74;61.61;100299.78;10402384;28;20466;-59
2021/07/19 01:13:49;;;;;;;7.50;4.63;;;;;;;17.73;61.32;100298.09;10403423;28;20048;-59
2021/07/19 01:18:51;;;;;;;7.43;4.95;;;;;;;17.66;61.59;100292.50;10402370;28;20535;-59
2021/07/19 01:23:58;;;;;;;11.60;5.60;;;;;;;17.44;62.00;100297.06;10403080;28;20133;-59
2021/07/19 01:29:01;;;;;;;7.78;5.43;;;;;;;17.31;62.34;100294.53;10401749;28;20050;-59
2021/07/19 01:34:15;;;;;;;10.00;5.88;;;;;;;17.32;62.52;100290.94;10403294;28;20137;-59
2021/07/19 01:39:17;;;;;;;8.07;5.07;;;;;;;17.30;62.34;100287.56;10410501;28;20145;-59
2021/07/19 01:44:20;;;;;;;7.75;5.30;;;;;;;17.26;62.02;100288.78;10410291;28;20559;-59
2021/07/19 01:49:22;;;;;;;9.98;5.00;;;;;;;17.28;62.36;100292.13;10410594;28;20125;-60
2021/07/19 01:54:25;;;;;;;9.57;5.00;;;;;;;17.27;62.23;100287.81;10409630;28;20390;-59
2021/07/19 01:59:27;;;;;;;9.20;5.57;;;;;;;17.23;62.39;100288.19;10410096;28;20094;-59
2021/07/19 02:04:29;;;;;;;11.82;5.25;;;;;;;17.13;62.46;100281.97;10414963;28;20056;-59
2021/07/19 02:09:33;;;;;;;7.05;4.63;;;;;;;17.07;62.87;100283.31;10415806;28;20092;-59
2021/07/19 02:14:39;;;;;;;7.63;5.50;;;;;;;17.11;62.75;100282.09;10416116;28;20080;-59
2021/07/19 02:19:42;;;;;;;8.65;5.28;;;;;;;17.09;62.25;100278.75;10416360;28;20140;-60
2021/07/19 02:24:45;;;;;;;9.40;5.35;;;;;;;16.99;62.52;100275.16;10415480;28;20129;-59
2021/07/19 02:29:47;;;;;;;8.82;5.50;;;;;;;16.94;62.52;100269.41;10415800;28;20532;-59
2021/07/19 02:34:49;;;;;;;10.43;5.50;;;;;;;16.82;62.73;100283.59;10415089;28;20478;-59
2021/07/19 02:39:51;;;;;;;7.03;5.28;;;;;;;16.80;62.95;100277.59;10416173;28;20137;-59
2021/07/19 02:44:54;;;;;;;15.32;5.88;;;;;;;16.68;63.21;100284.72;10415041;28;20133;-59
2021/07/19 02:49:57;;;;;;;8.15;5.57;;;;;;;16.63;63.18;100284.22;10414576;28;20051;-59
2021/07/19 02:55:00;;;;;;;9.20;5.25;;;;;;;16.62;63.06;100290.47;10414692;28;20132;-59
2021/07/19 03:00:10;;;;;;;8.63;5.13;;;;;;;16.62;63.15;100289.63;10415228;28;20593;-59
2021/07/19 03:05:13;;;;;;;;;;;;;;;16.18;64.13;100283.34;10410241;28;20063;-59
2021/07/19 03:10:20;;;;;;;7.13;5.20;;;;;;;16.46;63.55;100295.28;10424149;28;19921;-59
2021/07/19 03:15:27;;;;;;;7.20;5.63;;;;;;;16.49;63.35;100288.94;10406324;28;20077;-59
2021/07/19 03:20:36;;;;;;;9.02;5.00;;;;;;;16.51;62.99;100282.56;10406672;28;20431;-59
2021/07/19 03:25:38;;;;;;;9.88;5.22;;;;;;;16.58;62.99;100275.84;10406443;28;20075;-59
2021/07/19 03:30:43;;;;;;;6.57;5.47;;;;;;;16.59;62.87;100281.97;10404306;28;20088;-59
2021/07/19 03:35:45;;;;;;;8.63;6.18;;;;;;;16.49;63.06;100276.56;10399693;28;20034;-59
2021/07/19 03:40:47;;;;;;;6.53;5.18;;;;;;;16.49;63.03;100278.38;10394905;28;20137;-59
2021/07/19 03:45:49;;;;;;;15.18;5.28;;;;;;;16.49;62.73;100283.66;10398136;28;20045;-59
2021/07/19 03:50:51;;;;;;;7.03;5.68;;;;;;;16.56;62.93;100290.97;10406893;28;20095;-59
2021/07/19 03:55:53;;;;;;;6.95;5.53;;;;;;;16.58;62.61;100296.13;10413649;28;20590;-59
2021/07/19 04:00:57;;;;;;;10.23;5.38;;;;;;;16.64;62.27;100301.75;10406226;28;20137;-59
2021/07/19 04:06:01;;;;;;;9.35;5.82;;;;;;;16.67;62.10;100309.44;10366177;28;20045;-59
2021/07/19 04:11:03;;;;;;;7.70;5.50;;;;;;;16.68;62.19;100310.28;10390881;28;20495;-59
2021/07/19 04:16:06;;;;;;;7.80;5.97;;;;;;;16.67;62.32;100311.25;10368097;28;20065;-59
2021/07/19 04:21:10;;;;;;;10.65;5.43;;;;;;;16.77;62.18;100315.66;10379971;28;20048;-59
2021/07/19 04:26:13;;;;;;;9.32;6.13;;;;;;;17.35;61.20;100305.72;10397831;28;20076;-59
2021/07/19 04:31:16;;;;;;;11.27;5.70;;;;;;;19.20;56.56;100304.69;10436616;28;20460;-59
2021/07/19 04:36:18;;;;;;;8.32;4.85;;;;;;;21.30;51.39;100292.66;10416376;28;20088;-59
2021/07/19 04:41:20;;;;;;;9.35;4.95;;;;;;;23.09;47.24;100294.56;10403558;28;20111;-59
2021/07/19 04:46:21;;;;;;;6.85;4.75;;;;;;;24.53;43.96;100290.25;10423717;28;20156;-60
2021/07/19 04:51:23;;;;;;;8.43;4.63;;;;;;;25.91;40.71;100291.94;10390954;28;20545;-59
2021/07/19 04:56:26;;;;;;;6.13;4.28;;;;;;;26.98;38.42;100286.91;10401704;28;20103;-60
2021/07/19 05:01:30;;;;;;;7.93;4.38;;;;;;;27.74;36.71;100297.09;10402286;28;20046;-60
2021/07/19 05:06:33;;;;;;;10.15;3.90;;;;;;;28.12;35.79;100286.81;10407035;28;20128;-60
2021/07/19 05:11:35;;;;;;;6.47;3.70;;;;;;;28.61;34.49;100297.50;10422149;28;20124;-60
2021/07/19 05:16:38;;;;;;;7.80;3.97;;;;;;;28.82;34.10;100297.41;10414295;28;20049;-60
2021/07/19 05:21:41;;;;;;;7.50;4.00;;;;;;;29.50;33.12;100299.94;10401607;28;20052;-61
2021/07/19 05:26:45;;;;;;;8.02;3.60;;;;;;;29.58;32.44;100296.25;10412766;28;20050;-60
2021/07/19 05:31:47;;;;;;;6.25;3.63;;;;;;;29.58;32.66;100298.94;10441036;28;20137;-60
2021/07/19 05:36:49;;;;;;;8.75;3.95;;;;;;;27.93;34.65;100306.34;10376467;28;20509;-60
2021/07/19 05:41:50;;;;;;;6.10;3.85;;;;;;;25.98;38.00;100310.84;10422254;28;20110;-60
2021/07/19 05:46:53;;;;;;;10.35;4.10;;;;;;;25.01;40.36;100311.47;10387393;28;20428;-60
2021/07/19 05:51:55;;;;;;;7.88;4.28;;;;;;;24.37;41.45;100322.38;10417072;28;20037;-60
2021/07/19 05:56:57;;;;;;;7.80;4.03;;;;;;;23.93;42.35;100327.25;10415090;28;20268;-60
2021/07/19 06:01:58;;;;;;;7.30;4.15;;;;;;;23.36;43.90;100331.66;10443296;28;20052;-59
2021/07/19 06:07:00;;;;;;;7.40;4.00;;;;;;;23.03;45.34;100320.06;10428190;28;20045;-60
2021/07/19 06:12:03;;;;;;;7.15;4.68;;;;;;;22.55;47.17;100318.00;10434731;28;20044;-60
2021/07/19 06:17:05;;;;;;;10.05;5.28;;;;;;;22.39;47.19;100325.09;10398167;28;20049;-59
2021/07/19 06:22:10;;;;;;;10.50;5.30;;;;;;;21.81;48.65;100324.78;10428835;28;20045;-60
2021/07/19 06:27:11;;;;;;;9.07;5.00;;;;;;;21.92;48.90;100328.03;10449176;28;20445;-59
2021/07/19 06:32:13;;;;;;;10.70;5.60;;;;;;;21.42;49.25;100329.59;10442223;28;20059;-60
2021/07/19 06:37:15;;;;;;;10.90;5.32;;;;;;;21.34;49.83;100333.97;10461467;28;20405;-59
2021/07/19 06:42:18;;;;;;;8.73;5.32;;;;;;;21.02;51.00;100343.25;10443687;28;20560;-59
2021/07/19 06:47:20;;;;;;;11.60;5.13;;;;;;;20.96;51.70;100345.66;10447477;28;20049;-59
2021/07/19 06:52:22;;;;;;;11.48;4.55;;;;;;;20.97;52.14;100348.16;10438520;28;20063;-59
2021/07/19 06:57:24;;;;;;;9.13;4.50;;;;;;;20.85;51.74;100357.31;10438403;28;20063;-59
2021/07/19 07:02:26;;;;;;;14.10;4.85;;;;;;;20.33;52.11;100365.03;10427540;28;20081;-59
2021/07/19 07:07:28;;;;;;;8.93;4.85;;;;;;;20.53;52.49;100346.25;10414465;28;20523;-59
2021/07/19 07:12:29;;;;;;;10.50;4.50;;;;;;;20.85;51.53;100341.38;10406924;28;20136;-60
2021/07/19 07:17:31;;;;;;;10.65;4.50;;;;;;;21.19;51.32;100338.13;10391083;28;20450;-60
2021/07/19 07:22:33;;;;;;;10.48;4.50;;;;;;;21.53;50.32;100333.84;10380103;28;20085;-59
2021/07/19 07:27:36;;;;;;;15.13;4.15;;;;;;;22.07;49.32;100340.84;10386677;28;20501;-59
2021/07/19 07:32:38;;;;;;;11.82;4.70;;;;;;;22.30;48.63;100336.66;10396433;28;20129;-59
2021/07/19 07:37:40;;;;;;;9.60;4.32;;;;;;;22.52;48.21;100331.66;10365715;28;20131;-60
2021/07/19 07:42:42;;;;;;;9.07;4.32;;;;;;;22.68;47.25;100328.22;10394843;28;20049;-59
2021/07/19 07:47:44;;;;;;;8.50;4.00;;;;;;;22.91;47.08;100325.84;10405854;28;20647;-60
2021/07/19 07:52:47;;;;;;;7.97;3.70;;;;;;;23.31;46.73;100320.63;10405208;28;20136;-60
2021/07/19 07:57:48;;;;;;;9.23;3.88;;;;;;;23.21;45.88;100325.28;10401133;28;20048;-60
2021/07/19 08:02:50;;;;;;;9.98;3.50;;;;;;;23.12;46.42;100326.28;10382405;28;20085;-60
2021/07/19 08:07:52;;;;;;;6.88;3.63;;;;;;;23.31;45.89;100326.81;10409664;28;20080;-60
2021/07/19 08:12:56;;;;;;;10.13;4.35;;;;;;;23.28;45.48;100324.50;10385515;28;20096;-59
2021/07/19 08:17:57;;;;;;;7.88;3.63;;;;;;;23.31;45.21;100336.66;10385239;28;20049;-60
2021/07/19 08:22:59;;;;;;;7.30;3.58;;;;;;;23.37;45.15;100338.69;10393733;28;20080;-60
2021/07/19 08:28:01;;;;;;;8.05;3.88;;;;;;;23.35;44.33;100330.00;10402826;28;20085;-60
2021/07/19 08:33:03;;;;;;;11.07;3.50;;;;;;;23.26;44.27;100320.31;10403905;28;20450;-60
2021/07/19 08:38:06;;;;;;;7.07;3.78;;;;;;;23.00;44.37;100327.56;10403532;28;20140;-60
2021/07/19 08:43:11;;;;;;;6.25;3.63;;;;;;;23.35;44.03;100319.34;10403612;28;20037;-60
2021/07/19 08:48:12;;;;;;;6.43;3.63;;;;;;;23.92;43.05;100317.56;10401504;28;20510;-60
2021/07/19 08:53:14;;;;;;;10.85;4.75;;;;;;;24.34;41.57;100312.84;10401865;28;20107;-59
2021/07/19 08:58:16;;;;;;;13.80;4.55;;;;;;;24.60;40.82;100304.59;10402442;28;20053;-60
2021/07/19 09:03:18;;;;;;;8.48;4.18;;;;;;;24.30;40.73;100306.19;10402305;28;20160;-60
2021/07/19 09:08:20;;;;;;;6.53;4.00;;;;;;;24.80;39.97;100300.53;10402019;28;20050;-60
2021/07/19 09:13:22;;;;;;;6.80;4.28;;;;;;;24.91;38.71;100294.78;10402796;28;20136;-61
2021/07/19 09:18:25;;;;;;;7.65;4.50;;;;;;;26.60;35.92;100288.09;10403593;28;20061;-60
2021/07/19 09:23:28;;;;;;;8.00;4.40;;;;;;;27.14;34.80;100281.34;10402445;28;20397;-60
2021/07/19 09:28:30;;;;;;;11.10;5.30;;;;;;;25.58;36.60;100282.50;10397426;28;20060;-60
2021/07/19 09:33:32;;;;;;;13.60;5.72;;;;;;;24.64;38.40;100287.19;10397105;28;20136;-60
2021/07/19 09:38:33;;;;;;;10.98;5.38;;;;;;;24.98;37.63;100279.69;10399126;28;20093;-60
2021/07/19 09:43:35;;;;;;;9.15;5.68;;;;;;;25.64;36.76;100266.56;10400585;28;20129;-60
2021/07/19 09:48:38;;;;;;;14.45;6.65;;;;;;;26.50;34.83;100269.56;10400847;28;20045;-60
2021/07/19 09:53:43;;;;;;;12.05;6.25;;;;;;;26.92;33.64;100265.34;10413934;28;20125;-60
2021/07/19 09:59:03;;;;;;;9.10;5.93;;;;;;;26.77;33.32;100262.72;10402877;28;20145;-60
2021/07/19 10:04:14;;;;;;;9.50;6.32;;;;;;;26.30;34.88;100267.63;10402275;28;20128;-60
2021/07/19 10:09:19;;;;;;;11.60;6.60;;;;;;;26.20;34.77;100259.84;10410592;28;20045;-60
2021/07/19 10:14:33;;;;;;;8.48;6.78;;;;;;;26.58;34.55;100256.09;10383188;28;20068;-60
2021/07/19 10:19:38;;;;;;;10.55;6.85;;;;;;;26.56;34.23;100247.41;10378101;28;20050;-60
2021/07/19 10:24:42;;;;;;;9.10;7.40;;;;;;;27.22;32.94;100243.63;10416869;28;20076;-60
2021/07/19 10:29:46;;;;;;;9.50;7.43;;;;;;;27.37;32.87;100231.00;10391287;28;20081;-60
2021/07/19 10:34:50;;;;;;;10.40;7.43;;;;;;;26.27;34.96;100235.81;10395694;28;20141;-60
2021/07/19 10:39:56;;;;;;;11.88;8.48;;;;;;;26.27;34.71;100236.66;10391799;28;20091;-60
2021/07/19 10:45:06;;;;;;;12.75;7.93;;;;;;;26.88;34.66;100226.50;10386297;28;20186;-60
2021/07/19 10:50:16;;;;;;;11.25;8.10;;;;;;;26.69;33.19;100230.59;10379700;28;20052;-60
2021/07/19 10:55:25;;;;;;;11.43;7.90;;;;;;;26.62;33.95;100218.97;10389836;28;20566;-60
2021/07/19 11:00:29;;;;;;;13.95;8.07;;;;;;;26.75;34.70;100221.81;10425289;28;20052;-60
2021/07/19 11:05:40;;;;;;;14.30;8.23;;;;;;;26.64;34.60;100216.94;10378675;28;20050;-60
2021/07/19 11:10:46;;;;;;;10.18;8.10;;;;;;;26.64;33.73;100211.56;10401196;28;20469;-60
2021/07/19 11:15:48;;;;;;;13.10;8.95;;;;;;;26.03;35.04;100220.00;10407170;28;20132;-60
2021/07/19 11:20:50;;;;;;;15.10;9.10;;;;;;;26.13;35.52;100199.94;10406381;28;20049;-60
2021/07/19 11:25:52;;;;;;;10.40;8.55;;;;;;;26.10;34.95;100194.13;10396555;28;20132;-60
2021/07/19 11:31:09;;;;;;;14.13;8.27;;;;;;;26.07;35.55;100184.59;10391465;28;20037;-60
2021/07/19 11:36:29;;;;;;;12.35;8.63;;;;;;;26.16;36.10;100185.34;10403760;28;20042;-60
2021/07/19 11:41:33;;;;;;;12.23;8.88;;;;;;;25.82;36.24;100197.41;10402668;28;20084;-60
2021/07/19 11:46:37;;;;;;;11.10;8.52;;;;;;;26.22;35.67;100185.41;10399643;28;20080;-60
2021/07/19 11:51:43;;;;;;;12.65;8.27;;;;;;;26.36;35.33;100189.13;10402519;28;20088;-60
2021/07/19 11:56:51;;;;;;;11.68;8.27;;;;;;;26.79;34.50;100182.03;10402309;28;20405;-60
2021/07/19 12:02:03;;;;;;;13.85;9.63;;;;;;;26.45;34.66;100185.28;10398183;28;20292;-60
2021/07/19 12:07:08;;;;;;;12.13;8.65;;;;;;;26.41;35.42;100186.69;10402369;28;20046;-60
2021/07/19 12:12:11;;;;;;;16.30;9.65;;;;;;;26.40;35.90;100185.88;10401618;28;20128;-59
2021/07/19 12:17:13;;;;;;;11.15;9.15;;;;;;;26.05;36.07;100181.28;10385092;28;20077;-60
2021/07/19 12:22:17;;;;;;;11.45;9.18;;;;;;;26.68;35.67;100167.25;10400856;28;20524;-60
2021/07/19 12:27:19;;;;;;;12.65;9.30;;;;;;;27.19;34.89;100163.47;10396342;28;20235;-60
2021/07/19 12:32:21;;;;;;;14.52;9.60;;;;;;;26.94;34.54;100159.47;10401526;28;20148;-60
2021/07/19 12:37:23;;;;;;;11.05;9.10;;;;;;;26.53;35.85;100161.88;10404199;28;20111;-60
2021/07/19 12:42:29;;;;;;;13.52;9.90;;;;;;;26.29;36.00;100161.38;10404795;28;20049;-60
2021/07/19 12:47:31;;;;;;;16.38;9.88;;;;;;;26.77;35.42;100154.56;10404323;28;20119;-60
2021/07/19 12:52:35;;;;;;;11.45;9.60;;;;;;;27.00;33.77;100150.66;10403463;28;20409;-60
2021/07/19 12:57:53;;;;;;;13.57;10.55;;;;;;;27.14;33.87;100147.09;10404157;28;20053;-60
2021/07/19 13:03:14;;;;;;;15.57;10.15;;;;;;;26.55;34.17;100140.22;10404054;28;20501;-60
2021/07/19 13:08:15;;;;;;;14.48;10.05;;;;;;;26.30;35.36;100130.88;10403487;28;20080;-60
2021/07/19 13:13:23;;;;;;;13.52;10.20;;;;;;;27.00;33.46;100134.53;10404063;28;20077;-60
2021/07/19 13:18:25;;;;;;;13.05;10.10;;;;;;;27.56;34.90;100132.78;10403616;28;20046;-60
2021/07/19 13:23:33;;;;;;;13.88;10.73;;;;;;;27.38;33.21;100127.06;10403756;28;20124;-60
2021/07/19 13:28:34;;;;;;;18.50;10.85;;;;;;;27.50;33.48;100120.94;10403634;28;20124;-60
2021/07/19 13:33:44;;;;;;;13.77;10.82;;;;;;;27.51;33.81;100124.47;10409353;28;20478;-60
2021/07/19 13:38:48;;;;;;;13.43;10.80;;;;;;;26.72;34.30;100136.34;10410888;28;20075;-60
2021/07/19 13:44:00;;;;;;;13.23;11.20;;;;;;;26.63;34.22;100126.72;10410604;28;20136;-60
2021/07/19 13:49:02;;;;;;;13.95;11.23;;;;;;;26.85;34.12;100123.06;10411318;28;20478;-60
2021/07/19 13:54:04;;;;;;;17.55;11.55;;;;;;;26.81;34.72;100131.69;10410335;28;20552;-60
2021/07/19 13:59:05;;;;;;;15.40;11.50;;;;;;;26.94;34.43;100123.75;10410561;28;20053;-60
2021/07/19 14:04:07;;;;;;;15.23;11.60;;;;;;;26.99;34.47;100124.84;10410568;28;20124;-60
2021/07/19 14:09:09;;;;;;;14.90;11.90;;;;;;;27.13;33.73;100121.25;10410001;28;20453;-60
2021/07/19 14:14:12;;;;;;;13.68;11.70;;;;;;;26.91;34.74;100121.47;10410019;28;20084;-60
2021/07/19 14:19:14;;;;;;;15.57;11.80;;;;;;;26.88;34.03;100124.50;10409774;28;20092;-60
2021/07/19 14:24:17;;;;;;;15.73;11.82;;;;;;;26.89;34.44;100112.75;10408204;28;20124;-60
2021/07/19 14:29:18;;;;;;;13.25;11.40;;;;;;;26.89;34.35;100115.44;10409282;28;20496;-60
2021/07/19 14:34:24;;;;;;;14.13;11.68;;;;;;;26.76;34.43;100120.66;10409095;28;20132;-60
2021/07/19 14:39:25;;;;;;;13.98;12.30;;;;;;;26.45;34.40;100135.16;10409062;28;20076;-60
2021/07/19 14:44:27;;;;;;;13.52;11.50;;;;;;;26.38;34.31;100130.75;10407030;28;20128;-60
2021/07/19 14:49:29;;;;;;;14.10;12.13;;;;;;;26.51;35.48;100123.69;10408327;28;20057;-60
2021/07/19 14:54:30;;;;;;;13.70;12.18;;;;;;;26.54;34.79;100120.66;10409131;28;20053;-60
2021/07/19 14:59:32;;;;;;;18.40;12.10;;;;;;;26.63;34.87;100118.69;10407680;28;20063;-59
2021/07/19 15:04:34;;;;;;;18.30;12.52;;;;;;;26.39;35.19;100111.78;10408511;28;20055;-60
2021/07/19 15:09:35;;;;;;;17.60;12.05;;;;;;;26.15;35.65;100105.94;10422425;28;20132;-60
2021/07/19 15:14:37;;;;;;;16.20;12.18;;;;;;;25.97;35.59;100110.84;10407023;28;20053;-59
2021/07/19 15:19:39;;;;;;;15.52;11.85;;;;;;;26.16;36.47;100115.66;10406941;28;20081;-60
2021/07/19 15:24:41;;;;;;;14.60;11.25;;;;;;;25.89;36.00;100109.88;10407517;28;20052;-60
2021/07/19 15:29:43;;;;;;;17.50;11.40;;;;;;;25.80;36.14;100118.22;10406119;28;20080;-60
2021/07/19 15:34:44;;;;;;;14.63;11.90;;;;;;;25.84;35.95;100117.66;10405581;28;20045;-60
2021/07/19 15:39:46;;;;;;;13.93;11.45;;;;;;;25.87;35.78;100114.59;10405819;28;20050;-59
2021/07/19 15:44:48;;;;;;;15.85;11.73;;;;;;;25.73;35.65;100112.75;10421894;28;20102;-60
2021/07/19 15:49:50;;;;;;;15.43;11.73;;;;;;;25.47;35.99;100109.69;10405267;28;20144;-60
2021/07/19 15:54:52;;;;;;;14.85;11.00;;;;;;;25.70;36.25;100118.50;10405767;28;20120;-59
2021/07/19 15:59:54;;;;;;;15.68;11.13;;;;;;;26.10;35.26;100105.66;10395386;28;20053;-59
2021/07/19 16:04:57;;;;;;;14.25;11.23;;;;;;;26.25;35.06;100106.47;10401146;28;20080;-60
2021/07/19 16:09:59;;;;;;;13.73;11.07;;;;;;;25.98;35.56;100107.16;10411886;28;20474;-60
2021/07/19 16:15:00;;;;;;;15.63;11.98;;;;;;;25.50;36.76;100106.66;10397714;28;20152;-60
2021/07/19 16:20:04;;;;;;;15.95;11.55;;;;;;;25.12;37.16;100104.16;10402535;28;20580;-60
2021/07/19 16:25:07;;;;;;;16.10;11.60;;;;;;;25.06;36.96;100106.53;10403143;28;20382;-60
2021/07/19 16:30:10;;;;;;;15.30;11.77;;;;;;;25.14;37.37;100105.66;10434604;28;20132;-60
2021/07/19 16:35:13;;;;;;;14.73;11.63;;;;;;;25.17;37.30;100105.25;10402047;28;20132;-60
2021/07/19 16:40:15;;;;;;;17.35;12.07;;;;;;;24.74;37.79;100112.13;10436332;28;20148;-60
2021/07/19 16:50:21;;;;;;;13.80;11.60;;;;;;;24.34;38.51;100123.06;10408500;28;20613;-59
2021/07/19 16:55:23;;;;;;;13.90;11.40;;;;;;;24.39;37.73;100114.53;10402875;28;20055;-59
2021/07/19 17:00:25;;;;;;;15.88;11.45;;;;;;;24.50;38.10;100122.97;10412075;28;20069;-59
2021/07/19 17:05:26;;;;;;;14.93;11.07;;;;;;;24.34;37.43;100111.53;10422862;28;20045;-59
2021/07/19 17:10:28;;;;;;;13.90;11.43;;;;;;;24.07;37.61;100129.69;10415175;28;20049;-59
2021/07/19 17:15:30;;;;;;;17.35;11.95;;;;;;;23.86;38.78;100115.22;10407062;28;20445;-60
2021/07/19 17:20:32;;;;;;;14.65;11.20;;;;;;;23.90;38.47;100128.03;10413008;28;20057;-60
2021/07/19 17:25:36;;;;;;;13.32;11.50;;;;;;;23.76;39.23;100130.63;10405503;28;20152;-60
2021/07/19 17:30:40;;;;;;;13.77;11.38;;;;;;;23.50;39.16;100133.50;10400335;28;20128;-59
2021/07/19 17:35:44;;;;;;;23.42;11.63;;;;;;;23.39;39.59;100139.16;10409752;28;20128;-60
2021/07/19 17:40:46;;;;;;;17.42;11.30;;;;;;;23.33;38.96;100134.50;10427218;28;20132;-59
2021/07/19 17:45:48;;;;;;;15.02;11.25;;;;;;;23.31;38.93;100129.31;10429020;28;20751;-59
2021/07/19 17:50:50;;;;;;;16.48;12.68;;;;;;;23.20;39.75;100151.00;10409132;28;20228;-60
2021/07/19 17:55:51;;;;;;;15.20;12.23;;;;;;;23.18;39.51;100139.69;10407270;28;20506;-59
2021/07/19 18:00:53;;;;;;;20.25;12.27;;;;;;;22.82;40.09;100148.97;10410698;28;20049;-59
2021/07/19 18:05:55;;;;;;;14.65;12.00;;;;;;;22.81;40.45;100146.47;10409401;28;20552;-59
2021/07/19 18:10:57;;;;;;;17.02;12.10;;;;;;;22.89;40.32;100151.81;10385314;28;20043;-59
2021/07/19 18:15:58;;;;;;;17.92;13.52;;;;;;;22.75;39.87;100163.13;10368932;28;20441;-59
2021/07/19 18:21:01;;;;;;;17.58;12.35;;;;;;;22.51;40.59;100159.41;10380122;28;20136;-59
2021/07/19 18:26:16;;;;;;;18.50;13.85;;;;;;;22.22;39.94;100155.44;10409670;28;20073;-59
2021/07/19 18:31:17;;;;;;;20.35;13.52;;;;;;;21.94;40.51;100162.78;10377915;28;20081;-59
2021/07/19 18:36:19;;;;;;;18.00;13.10;;;;;;;21.79;42.48;100159.03;10410485;28;20145;-59
2021/07/19 18:41:21;;;;;;;18.95;13.98;;;;;;;21.80;41.40;100150.06;10428977;28;20128;-59
2021/07/19 18:46:23;;;;;;;20.23;14.05;;;;;;;21.80;41.67;100158.06;10408746;28;20128;-59
2021/07/19 18:51:25;;;;;;;16.58;13.13;;;;;;;21.59;41.64;100146.94;10408249;28;20042;-59
2021/07/19 18:56:26;;;;;;;16.95;13.13;;;;;;;21.42;42.15;100155.78;10408430;28;20128;-59
2021/07/19 19:01:28;;;;;;;18.50;13.48;;;;;;;21.38;43.57;100159.75;10408341;28;20128;-59
2021/07/19 19:06:30;;;;;;;19.42;14.13;;;;;;;21.27;43.44;100160.81;10407062;28;20128;-59
2021/07/19 19:11:35;;;;;;;18.33;13.23;;;;;;;21.14;43.51;100157.69;10406989;28;20132;-59
2021/07/19 19:16:37;;;;;;;16.92;13.68;;;;;;;21.08;44.55;100156.50;10406752;28;20081;-59
2021/07/19 19:21:39;;;;;;;18.92;14.10;;;;;;;20.94;45.19;100157.03;10407018;28;20049;-59
2021/07/19 19:26:41;;;;;;;18.83;14.07;;;;;;;20.71;45.29;100158.47;10407428;28;20041;-59
2021/07/19 19:31:43;;;;;;;17.08;13.82;;;;;;;20.53;45.80;100160.22;10406399;28;20076;-60
2021/07/19 19:36:45;;;;;;;18.80;14.02;;;;;;;20.28;46.95;100175.06;10406478;28;20085;-59
2021/07/19 19:41:46;;;;;;;20.13;13.90;;;;;;;20.21;47.04;100173.94;10406284;28;20575;-59
2021/07/19 19:46:48;;;;;;;19.23;14.43;;;;;;;20.09;47.84;100183.09;10421708;28;20120;-59
2021/07/19 19:51:50;;;;;;;21.25;15.57;;;;;;;20.02;48.85;100187.31;10406294;28;20079;-59
2021/07/19 19:56:53;;;;;;;18.98;14.80;;;;;;;19.91;49.41;100189.34;10393136;28;20136;-59
2021/07/19 20:01:55;;;;;;;20.63;15.93;;;;;;;19.83;49.20;100199.81;10404945;28;20046;-59
2021/07/19 20:06:57;;;;;;;21.38;15.70;;;;;;;19.54;49.34;100207.81;10412173;28;20060;-59
2021/07/19 20:11:59;;;;;;;19.42;15.25;;;;;;;19.45;50.01;100203.34;10403922;28;20413;-59
2021/07/19 20:17:01;;;;;;;18.48;14.82;;;;;;;19.48;49.85;100214.50;10404607;28;20068;-59
2021/07/19 20:22:03;;;;;;;19.83;15.27;;;;;;;19.37;49.55;100206.72;10404458;28;20144;-59
2021/07/19 20:27:05;;;;;;;20.45;14.27;;;;;;;19.32;50.15;100211.59;10404104;28;20045;-59
2021/07/19 20:32:07;;;;;;;21.13;15.20;;;;;;;19.21;50.58;100208.25;10403831;28;20128;-59
2021/07/19 20:37:09;;;;;;;18.08;14.85;;;;;;;19.10;50.96;100211.88;10404103;28;20076;-59
2021/07/19 20:42:11;;;;;;;19.27;14.40;;;;;;;18.97;50.97;100210.44;10402821;28;20096;-59
2021/07/19 20:47:13;;;;;;;19.45;14.90;;;;;;;18.87;51.08;100215.72;10403539;28;20132;-59
2021/07/19 20:52:16;;;;;;;18.92;15.18;;;;;;;18.85;51.34;100222.97;10385896;28;20049;-59
2021/07/19 20:57:17;;;;;;;22.95;15.85;;;;;;;18.42;52.18;100230.41;10403334;28;20042;-59
2021/07/19 21:02:19;;;;;;;21.33;14.55;;;;;;;18.35;52.77;100229.25;10403537;28;20140;-59
2021/07/19 21:07:25;;;;;;;19.60;15.40;;;;;;;18.38;52.83;100229.00;10403235;28;20582;-59
2021/07/19 21:12:31;;;;;;;19.73;16.08;;;;;;;18.33;53.06;100220.59;10402526;28;20482;-59
2021/07/19 21:17:33;;;;;;;20.77;16.27;;;;;;;18.20;53.65;100234.06;10403745;28;20126;-57
2021/07/19 21:22:39;;;;;;;23.25;17.95;;;;;;;17.50;54.75;100231.28;10402625;28;20405;-59
2021/07/19 21:27:42;;;;;;;21.63;16.70;;;;;;;17.18;56.17;100233.06;10403801;28;20041;-59
2021/07/19 21:32:43;;;;;;;20.30;16.48;;;;;;;17.09;56.47;100244.41;10403267;28;20049;-59
2021/07/19 21:37:45;;;;;;;20.13;16.50;;;;;;;17.18;56.96;100234.88;10403175;28;20060;-59
2021/07/19 21:42:47;;;;;;;23.25;15.43;;;;;;;17.27;56.93;100248.16;10403231;28;20053;-58
2021/07/19 21:47:49;;;;;;;19.40;15.25;;;;;;;17.31;57.07;100249.59;10403875;28;20096;-59
2021/07/19 21:52:51;;;;;;;21.85;16.40;;;;;;;17.31;57.09;100246.09;10406277;28;20419;-59
2021/07/19 21:57:53;;;;;;;21.52;15.98;;;;;;;17.25;57.05;100243.97;10410883;28;20096;-59
2021/07/19 22:02:55;;;;;;;19.95;15.75;;;;;;;17.17;56.97;100247.25;10410486;28;20053;-60
2021/07/19 22:07:57;;;;;;;25.50;16.23;;;;;;;17.04;56.99;100249.19;10410003;28;20096;-59
2021/07/19 22:12:59;;;;;;;20.90;15.95;;;;;;;16.98;57.14;100249.69;10410524;28;20132;-59
2021/07/19 22:18:02;;;;;;;21.80;16.77;;;;;;;16.74;57.27;100251.69;10410622;28;20129;-59
2021/07/19 22:23:04;;;;;;;19.65;15.50;;;;;;;16.60;58.43;100254.59;10409349;28;20529;-59
2021/07/19 22:28:07;;;;;;;24.70;16.73;;;;;;;16.53;58.27;100254.22;10409704;28;20053;-59
2021/07/19 22:33:11;;;;;;;23.80;17.42;;;;;;;16.48;58.76;100255.56;10409441;28;20128;-59
2021/07/19 22:38:13;;;;;;;22.83;16.65;;;;;;;16.56;58.47;100259.28;10409121;28;20549;-59
2021/07/19 22:43:15;;;;;;;21.35;16.08;;;;;;;16.61;58.29;100264.19;10408957;28;20148;-58
2021/07/19 22:48:16;;;;;;;24.13;16.90;;;;;;;16.57;58.22;100257.50;10408890;28;20069;-59
2021/07/19 22:53:18;;;;;;;19.73;16.20;;;;;;;16.40;58.15;100253.50;10408434;28;20097;-60
2021/07/19 22:58:20;;;;;;;22.40;17.02;;;;;;;15.93;59.52;100251.06;10408505;28;20045;-59
2021/07/19 23:03:22;;;;;;;23.52;17.38;;;;;;;16.05;59.58;100256.25;10423015;28;20049;-59